createdAt,value
2022-08-16T00:00:04.356Z,10
2022-08-16T00:03:29.254Z,10.5
2022-08-16T00:06:16.861Z,9.6
2022-08-16T00:09:04.521Z,10.3
2022-08-16T00:11:52.810Z,9.7
2022-08-16T00:14:43.269Z,11.3
2022-08-16T00:17:56.494Z,9.6
2022-08-16T00:20:44.965Z,10.2
2022-08-16T00:23:34.890Z,9.9
2022-08-16T00:26:35.001Z,10.4
2022-08-16T00:29:31.453Z,10.8
2022-08-16T00:32:20.274Z,9.8
2022-08-16T00:35:13.237Z,10.3
2022-08-16T00:38:40.984Z,10.9
2022-08-16T00:41:31.172Z,10.8
2022-08-16T00:44:31.845Z,10.2
2022-08-16T00:47:22.216Z,11.2
2022-08-16T00:50:12.286Z,11.5
2022-08-16T00:53:00.226Z,11.4
2022-08-16T00:55:48.165Z,11.6
2022-08-16T00:58:40.020Z,10.8
2022-08-16T01:01:36.003Z,11.3
2022-08-16T01:04:29.480Z,12.2
2022-08-16T01:07:18.097Z,11.4
2022-08-16T01:10:16.491Z,11.4
2022-08-16T01:13:05.508Z,12.5
2022-08-16T01:15:57.902Z,11.4
2022-08-16T01:18:50.998Z,11.3
2022-08-16T01:21:45.335Z,10.9
2022-08-16T01:24:53.175Z,12.1
2022-08-16T01:27:47.413Z,13.1
2022-08-16T01:30:40.200Z,12.3
2022-08-16T01:33:44.699Z,12
2022-08-16T01:36:33.030Z,11.9
2022-08-16T01:39:21.510Z,13
2022-08-16T01:42:13.086Z,13.4
2022-08-16T01:45:00.851Z,11.7
2022-08-16T01:47:51.206Z,12.3
2022-08-16T01:50:42.276Z,12.2
2022-08-16T01:54:02.358Z,12
2022-08-16T01:56:50.461Z,12.6
2022-08-16T01:59:39.077Z,12.2
2022-08-16T02:02:28.842Z,12.1
2022-08-16T02:05:16.690Z,12.8
2022-08-16T02:08:06.077Z,12.4
2022-08-16T02:10:55.169Z,11.8
2022-08-16T02:13:43.260Z,12
2022-08-16T02:16:31.397Z,12.4
2022-08-16T02:19:19.106Z,11.9
2022-08-16T02:22:34.180Z,11.9
2022-08-16T02:25:23.206Z,12.7
2022-08-16T02:28:12.444Z,11
2022-08-16T02:31:05.823Z,12
2022-08-16T02:33:57.400Z,11.7
2022-08-16T02:36:49.352Z,12.2
2022-08-16T02:39:37.893Z,12
2022-08-16T02:42:29.277Z,11.2
2022-08-16T02:45:17.032Z,11.2
2022-08-16T02:48:29.805Z,12.2
2022-08-16T02:51:19.264Z,12.6
2022-08-16T02:54:12.181Z,12.8
2022-08-16T02:57:04.476Z,11.6
2022-08-16T02:59:52.136Z,11.8
2022-08-16T03:02:39.720Z,13.2
2022-08-16T03:05:31.028Z,12.3
2022-08-16T03:08:50.787Z,12.4
2022-08-16T03:11:40.523Z,12.2
2022-08-16T03:14:29.393Z,12.6
2022-08-16T03:17:18.008Z,11.9
2022-08-16T03:20:06.141Z,12.5
2022-08-16T03:22:56.897Z,12.1
2022-08-16T03:25:44.982Z,11.3
2022-08-16T03:28:36.143Z,11.4
2022-08-16T03:31:25.193Z,13.1
2022-08-16T03:34:22.138Z,12
2022-08-16T03:37:09.704Z,12.3
2022-08-16T03:40:02.904Z,12.3
2022-08-16T03:43:18.812Z,11.3
2022-08-16T03:46:08.997Z,11.4
2022-08-16T03:48:58.229Z,11.8
2022-08-16T03:51:46.249Z,12.8
2022-08-16T03:54:35.667Z,12.2
2022-08-16T03:57:23.432Z,11.5
2022-08-16T04:00:11.657Z,12.7
2022-08-16T04:03:11.494Z,12.9
2022-08-16T04:06:00.266Z,12.6
2022-08-16T04:08:50.832Z,13.7
2022-08-16T04:11:38.654Z,13
2022-08-16T04:14:33.241Z,12.6
2022-08-16T04:17:21.870Z,13.2
2022-08-16T04:20:31.440Z,12.9
2022-08-16T04:23:22.250Z,12.7
2022-08-16T04:26:11.566Z,12.2
2022-08-16T04:29:16.320Z,13.3
2022-08-16T04:32:12.720Z,13.7
2022-08-16T04:35:07.579Z,13.3
2022-08-16T04:38:01.032Z,12.9
2022-08-16T04:41:00.083Z,13.6
2022-08-16T04:43:47.783Z,11.9
2022-08-16T04:47:02.281Z,16.1
2022-08-16T04:49:52.597Z,13.5
2022-08-16T04:52:40.598Z,13.3
2022-08-16T04:55:37.976Z,13
2022-08-16T04:58:45.929Z,12.9
2022-08-16T05:01:57.927Z,14.9
2022-08-16T05:04:46.573Z,14.2
2022-08-16T05:07:34.295Z,13.6
2022-08-16T05:10:22.918Z,13.6
2022-08-16T05:13:15.493Z,13.3
2022-08-16T05:16:03.778Z,15.3
2022-08-16T05:18:56.557Z,15.8
2022-08-16T05:21:46.944Z,14.3
2022-08-16T05:24:34.877Z,14.3
2022-08-16T05:27:22.984Z,13.7
2022-08-16T05:30:34.106Z,13.6
2022-08-16T05:33:23.189Z,13.9
2022-08-16T05:36:14.409Z,15.1
2022-08-16T05:39:02.399Z,15.1
2022-08-16T05:41:52.323Z,14.7
2022-08-16T05:44:40.781Z,14.7
2022-08-16T05:47:30.330Z,16
2022-08-16T05:50:19.148Z,15.2
2022-08-16T05:53:07.262Z,15
2022-08-16T05:55:58.015Z,14.5
2022-08-16T05:58:45.559Z,15.5
2022-08-16T06:01:33.216Z,14.4
2022-08-16T06:04:35.328Z,14.8
2022-08-16T06:07:26.600Z,15.9
2022-08-16T06:10:14.756Z,16
2022-08-16T06:13:19.748Z,15.4
2022-08-16T06:16:08.177Z,14.9
2022-08-16T06:18:55.812Z,15.8
2022-08-16T06:21:43.520Z,13.1
2022-08-16T06:24:54.155Z,15
2022-08-16T06:27:57.212Z,15.9
2022-08-16T06:30:45.557Z,15.2
2022-08-16T06:33:41.551Z,14.8
2022-08-16T06:36:32.285Z,14.3
2022-08-16T06:39:20.132Z,15
2022-08-16T06:42:08.018Z,13.1
2022-08-16T06:44:55.796Z,15.2
2022-08-16T06:47:56.110Z,15.4
2022-08-16T06:50:44.401Z,14.4
2022-08-16T06:53:37.070Z,12.9
2022-08-16T06:56:24.869Z,14.2
2022-08-16T06:59:12.953Z,14.1
2022-08-16T07:02:00.548Z,14.2
2022-08-16T07:04:48.923Z,14.1
2022-08-16T07:07:40.370Z,13.3
2022-08-16T07:10:33.173Z,13
2022-08-16T07:13:43.666Z,13.3
2022-08-16T07:16:46.269Z,12.5
2022-08-16T07:20:03.778Z,12.2
2022-08-16T07:23:34.939Z,12.4
2022-08-16T07:26:30.766Z,12.2
2022-08-16T07:29:18.525Z,12
2022-08-16T07:32:06.363Z,11.2
2022-08-16T07:34:54.525Z,12.5
2022-08-16T07:37:42.040Z,12.9
2022-08-16T07:40:56.421Z,10.8
2022-08-16T07:43:48.506Z,11.1
2022-08-16T07:46:39.589Z,12.3
2022-08-16T07:49:32.282Z,11.6
2022-08-16T07:52:20.744Z,11.8
2022-08-16T07:55:08.802Z,11.9
2022-08-16T07:58:03.228Z,11.7
2022-08-16T08:00:51.509Z,11.4
2022-08-16T08:03:42.455Z,10.7
2022-08-16T08:06:31.945Z,10.1
2022-08-16T08:09:20.780Z,9.4
2022-08-16T08:12:08.413Z,8.7
2022-08-16T08:15:25.171Z,10.1
2022-08-16T08:18:30.201Z,9.9
2022-08-16T08:21:18.537Z,10.6
2022-08-16T08:24:09.277Z,10.5
2022-08-16T08:26:59.881Z,10.8
2022-08-16T08:30:43.981Z,10.5
2022-08-16T08:33:43.861Z,11.3
2022-08-16T08:36:34.383Z,9.9
2022-08-16T08:39:24.779Z,10.8
2022-08-16T08:42:12.909Z,9.8
2022-08-16T08:45:00.759Z,10.6
2022-08-16T08:47:54.116Z,10.4
2022-08-16T08:50:50.197Z,10.6
2022-08-16T08:53:38.099Z,10.1
2022-08-16T08:56:26.239Z,10.2
2022-08-16T08:59:20.009Z,10.1
2022-08-16T09:02:09.644Z,10.1
2022-08-16T09:05:00.895Z,9.8
2022-08-16T09:08:06.063Z,10.4
2022-08-16T09:11:02.132Z,9.1
2022-08-16T09:13:51.002Z,9.6
2022-08-16T09:17:01.278Z,9.5
2022-08-16T09:19:55.731Z,9.2
2022-08-16T09:22:45.148Z,8.8
2022-08-16T09:25:40.609Z,8.6
2022-08-16T09:29:06.796Z,8.5
2022-08-16T09:32:04.361Z,9
2022-08-16T09:34:58.308Z,8.6
2022-08-16T09:37:47.630Z,9.1
2022-08-16T09:40:49.559Z,10.2
2022-08-16T09:43:59.449Z,8.2
2022-08-16T09:46:49.940Z,8.9
2022-08-16T09:49:41.302Z,8.3
2022-08-16T09:52:29.223Z,9
2022-08-16T09:55:16.786Z,7.9
2022-08-16T09:58:04.691Z,8.8
2022-08-16T10:00:52.804Z,7.5
2022-08-16T10:04:02.217Z,7.6
2022-08-16T10:06:51.757Z,8.1
2022-08-16T10:09:44.916Z,7.8
2022-08-16T10:12:43.150Z,7.4
2022-08-16T10:16:02.390Z,7.1
2022-08-16T10:19:01.749Z,7.7
2022-08-16T10:21:56.364Z,7.2
2022-08-16T10:24:55.793Z,6.3
2022-08-16T10:27:53.349Z,6.3
2022-08-16T10:30:45.058Z,6.2
2022-08-16T10:33:33.376Z,6.3
2022-08-16T10:36:39.225Z,7.3
2022-08-16T10:39:41.118Z,5.9
2022-08-16T10:42:29.829Z,5.7
2022-08-16T10:45:17.496Z,5.7
2022-08-16T10:48:05.688Z,5.2
2022-08-16T10:51:15.798Z,5.1
2022-08-16T10:54:04.944Z,5.6
2022-08-16T10:56:56.818Z,6.1
2022-08-16T10:59:54.499Z,5.8
2022-08-16T11:02:57.741Z,6.2
2022-08-16T11:06:29.526Z,6
2022-08-16T11:09:25.422Z,5.9
2022-08-16T11:12:16.979Z,5.8
2022-08-16T11:15:13.560Z,6.3
2022-08-16T11:21:28.596Z,6.8
2022-08-16T11:24:42.627Z,7
2022-08-16T11:27:35.740Z,7.2
2022-08-16T11:30:24.217Z,7
2022-08-16T11:33:18.261Z,6.7
2022-08-16T11:36:24.784Z,6.4
2022-08-16T11:39:15.948Z,6.9
2022-08-16T11:42:03.683Z,7.1
2022-08-16T11:45:10.555Z,7.2
2022-08-16T11:48:00.075Z,7.2
2022-08-16T11:50:47.992Z,6.9
2022-08-16T11:53:35.929Z,6.6
2022-08-16T11:56:39.629Z,7.1
2022-08-16T11:59:40.425Z,7.1
2022-08-16T12:02:32.004Z,7.5
2022-08-16T12:05:20.651Z,7.3
2022-08-16T12:08:09.453Z,7.6
2022-08-16T12:10:59.643Z,7.5
2022-08-16T12:13:50.631Z,7
2022-08-16T12:16:39.610Z,6.6
2022-08-16T12:19:38.101Z,7.5
2022-08-16T12:22:26.076Z,6.4
2022-08-16T12:25:13.888Z,7.1
2022-08-16T12:28:05.049Z,6.6
2022-08-16T12:30:54.606Z,6.3
2022-08-16T12:33:44.474Z,6.7
2022-08-16T12:36:32.821Z,6.2
2022-08-16T12:39:20.435Z,6.5
2022-08-16T12:42:09.656Z,6.3
2022-08-16T12:44:57.341Z,6.2
2022-08-16T12:47:44.829Z,7.3
2022-08-16T12:51:05.092Z,7
2022-08-16T12:54:03.901Z,6.9
2022-08-16T12:56:54.299Z,6.4
2022-08-16T12:59:43.466Z,6.4
2022-08-16T13:02:33.847Z,6.6
2022-08-16T13:05:24.745Z,6.2
2022-08-16T13:08:19.989Z,6.4
2022-08-16T13:11:09.078Z,6.7
2022-08-16T13:13:57.130Z,6.3
2022-08-16T13:16:45.974Z,7.2
2022-08-16T13:19:56.401Z,6.4
2022-08-16T13:22:56.707Z,7.3
2022-08-16T13:25:46.985Z,6.4
2022-08-16T13:28:37.476Z,6.2
2022-08-16T13:31:25.007Z,6.6
2022-08-16T13:34:13.901Z,7.2
2022-08-16T13:37:06.681Z,9.1
2022-08-16T13:39:54.336Z,7.4
2022-08-16T13:42:43.370Z,8.2
2022-08-16T13:45:33.144Z,17.3
2022-08-16T13:48:25.100Z,7.5
2022-08-16T13:51:16.662Z,7.7
2022-08-16T13:54:08.568Z,15.3
2022-08-16T13:56:56.722Z,7
2022-08-16T13:59:45.430Z,13.6
2022-08-16T14:02:37.838Z,9.4
2022-08-16T14:05:25.774Z,25.3
2022-08-16T14:08:14.939Z,8.5
2022-08-16T14:11:02.717Z,6.2
2022-08-16T14:13:51.007Z,5.7
2022-08-16T14:16:39.993Z,5.4
2022-08-16T14:19:29.955Z,5
2022-08-16T14:22:30.778Z,5
2022-08-16T14:25:23.383Z,5.7
2022-08-16T14:28:11.276Z,5.5
2022-08-16T14:31:00.657Z,5.5
2022-08-16T14:33:48.538Z,5.3
2022-08-16T14:36:36.254Z,4.9
2022-08-16T14:39:24.108Z,5.3
2022-08-16T14:42:11.882Z,5.2
2022-08-16T14:45:03.897Z,5
2022-08-16T14:47:53.721Z,5.1
2022-08-16T14:50:42.073Z,5
2022-08-16T14:53:32.755Z,5.2
2022-08-16T14:56:42.600Z,5.1
2022-08-16T14:59:34.459Z,5.1
2022-08-16T15:02:34.470Z,4.5
2022-08-16T15:05:23.513Z,4.7
2022-08-16T15:08:13.625Z,4.8
2022-08-16T15:11:04.115Z,4.8
2022-08-16T15:13:52.006Z,5
2022-08-16T15:16:45.982Z,4.9
2022-08-16T15:19:33.918Z,4.7
2022-08-16T15:22:21.987Z,5.2
2022-08-16T15:25:15.035Z,5.3
2022-08-16T15:28:06.701Z,5.4
2022-08-16T15:31:12.965Z,6
2022-08-16T15:34:01.957Z,5.2
2022-08-16T15:36:49.553Z,4.7
2022-08-16T15:39:39.922Z,4.8
2022-08-16T15:42:29.062Z,4.9
2022-08-16T15:45:16.613Z,5.3
2022-08-16T15:49:07.174Z,5.4
2022-08-16T15:51:55.701Z,4.8
2022-08-16T15:54:52.493Z,5
2022-08-16T15:57:42.008Z,5.3
2022-08-16T16:00:30.075Z,5.4
2022-08-16T16:03:19.977Z,4.7
2022-08-16T16:06:10.172Z,5.5
2022-08-16T16:09:01.821Z,5.2
2022-08-16T16:11:49.556Z,5
2022-08-16T16:14:38.854Z,4.5
2022-08-16T16:17:26.927Z,5.1
2022-08-16T16:20:17.100Z,5.2
2022-08-16T16:23:10.437Z,5.1
2022-08-16T16:26:05.827Z,7.5
2022-08-16T16:29:07.902Z,5.1
2022-08-16T16:31:59.537Z,4.8
2022-08-16T16:34:52.352Z,5.1
2022-08-16T16:37:47.113Z,5.1
2022-08-16T16:40:36.835Z,5.1
2022-08-16T16:43:31.941Z,4.9
2022-08-16T16:46:40.849Z,5.4
2022-08-16T16:49:31.828Z,4.8
2022-08-16T16:52:43.521Z,5
2022-08-16T16:55:35.032Z,5.5
2022-08-16T16:58:35.367Z,5.5
2022-08-16T17:01:59.712Z,4.7
2022-08-16T17:05:27.168Z,4.5
2022-08-16T17:08:21.849Z,5
2022-08-16T17:11:12.261Z,5
2022-08-16T17:14:00.797Z,4.5
2022-08-16T17:16:49.312Z,5.3
2022-08-16T17:19:40.852Z,5
2022-08-16T17:22:32.827Z,5.1
2022-08-16T17:25:21.176Z,5.1
2022-08-16T17:28:59.612Z,5.3
2022-08-16T17:31:50.683Z,5.5
2022-08-16T17:34:46.431Z,5.9
2022-08-16T17:37:53.543Z,5.4
2022-08-16T17:40:57.443Z,5.3
2022-08-16T17:43:46.738Z,5.5
2022-08-16T17:46:50.734Z,5.4
2022-08-16T17:49:40.294Z,5.4
2022-08-16T17:52:28.094Z,5.3
2022-08-16T17:55:15.706Z,5.6
2022-08-16T17:58:09.888Z,5.3
2022-08-16T18:01:10.265Z,6
2022-08-16T18:04:09.257Z,6.2
2022-08-16T18:06:57.792Z,6.4
2022-08-16T18:09:45.500Z,6.7
2022-08-16T18:12:50.788Z,6.5
2022-08-16T18:15:42.745Z,6.3
2022-08-16T18:18:30.378Z,5.4
2022-08-16T18:21:18.032Z,6.2
2022-08-16T18:24:38.441Z,6.7
2022-08-16T18:27:27.273Z,7.4
2022-08-16T18:30:17.190Z,7.4
2022-08-16T18:33:04.808Z,9
2022-08-16T18:35:57.463Z,9.9
2022-08-16T18:38:45.990Z,8.8
2022-08-16T18:41:33.927Z,7.8
2022-08-16T18:44:28.413Z,7.1
2022-08-16T18:47:22.437Z,6.6
2022-08-16T18:50:09.911Z,7.8
2022-08-16T18:52:57.544Z,8.3
2022-08-16T18:55:47.865Z,8.3
2022-08-16T18:58:39.241Z,8.8
2022-08-16T19:01:26.994Z,8.2
2022-08-16T19:04:56.291Z,8.3
2022-08-16T19:07:47.925Z,9.4
2022-08-16T19:10:36.358Z,8.4
2022-08-16T19:13:25.939Z,8.5
2022-08-16T19:16:14.985Z,8.1
2022-08-16T19:19:02.951Z,7.6
2022-08-16T19:21:50.572Z,7.4
2022-08-16T19:24:39.168Z,6.8
2022-08-16T19:27:30.755Z,6.6
2022-08-16T19:30:23.247Z,6.6
2022-08-16T19:33:11.235Z,6.7
2022-08-16T19:35:59.523Z,6.9
2022-08-16T19:38:47.353Z,7.1
2022-08-16T19:41:35.420Z,7.3
2022-08-16T19:44:26.803Z,7.1
2022-08-16T19:47:14.522Z,7
2022-08-16T19:50:02.541Z,7.1
2022-08-16T19:52:52.046Z,7.5
2022-08-16T19:55:45.540Z,7.3
2022-08-16T19:58:35.113Z,7.5
2022-08-16T20:01:23.526Z,6.6
2022-08-16T20:04:11.123Z,7.4
2022-08-16T20:06:59.527Z,7.2
2022-08-16T20:09:47.141Z,8
2022-08-16T20:12:38.207Z,7.5
2022-08-16T20:15:27.181Z,7.3
2022-08-16T20:18:21.514Z,7.9
2022-08-16T20:21:12.905Z,7.8
2022-08-16T20:24:31.966Z,7.5
2022-08-16T20:27:21.525Z,6.6
2022-08-16T20:30:09.210Z,8.4
2022-08-16T20:32:59.532Z,6.9
2022-08-16T20:35:47.507Z,7.9
2022-08-16T20:38:35.230Z,7.6
2022-08-16T20:41:38.489Z,7.5
2022-08-16T20:44:27.011Z,8.1
2022-08-16T20:47:14.615Z,8.4
2022-08-16T20:50:02.285Z,8.3
2022-08-16T20:52:52.042Z,8.1
2022-08-16T20:55:39.968Z,8
2022-08-16T20:58:30.204Z,8.3
2022-08-16T21:01:18.339Z,8
2022-08-16T21:04:06.037Z,8.4
2022-08-16T21:06:55.011Z,8.7
2022-08-16T21:09:43.918Z,8.3
2022-08-16T21:12:37.615Z,8
2022-08-16T21:15:33.879Z,8.1
2022-08-16T21:18:21.578Z,8.5
2022-08-16T21:21:09.246Z,9
2022-08-16T21:23:57.253Z,8.7
2022-08-16T21:26:49.829Z,8.1
2022-08-16T21:29:43.515Z,8.4
2022-08-16T21:32:35.658Z,9
2022-08-16T21:35:23.719Z,8.8
2022-08-16T21:38:29.980Z,8.6
2022-08-16T21:41:18.402Z,7.9
2022-08-16T21:44:06.038Z,8.6
2022-08-16T21:46:53.701Z,9.4
2022-08-16T21:49:41.253Z,9.3
2022-08-16T21:52:28.853Z,10
2022-08-16T21:55:16.455Z,9.2
2022-08-16T21:58:04.041Z,9.2
2022-08-16T22:00:52.181Z,8.6
2022-08-16T22:03:40.390Z,8.4
2022-08-16T22:06:27.956Z,7.8
2022-08-16T22:09:15.729Z,9.3
2022-08-16T22:12:03.300Z,8.9
2022-08-16T22:14:51.535Z,8.5
2022-08-16T22:17:39.917Z,8.5
2022-08-16T22:20:27.807Z,9.3
2022-08-16T22:23:15.458Z,8.4
2022-08-16T22:26:06.625Z,8.4
2022-08-16T22:28:54.261Z,9.3
2022-08-16T22:31:42.511Z,8.9
2022-08-16T22:34:30.593Z,8.7
2022-08-16T22:37:19.210Z,8.2
2022-08-16T22:40:06.766Z,8.5
2022-08-16T22:42:56.447Z,9.3
2022-08-16T22:45:43.929Z,9.2
2022-08-16T22:48:33.206Z,9
2022-08-16T22:51:27.751Z,8.6
2022-08-16T22:54:43.819Z,9
2022-08-16T22:57:36.516Z,8.7
2022-08-16T23:00:24.374Z,9.7
2022-08-16T23:03:15.633Z,9.7
2022-08-16T23:06:06.522Z,9.3
2022-08-16T23:08:55.640Z,9.6
2022-08-16T23:11:43.246Z,10.1
2022-08-16T23:14:30.976Z,9.8
2022-08-16T23:17:18.867Z,10.4
2022-08-16T23:20:06.357Z,10
2022-08-16T23:23:19.840Z,10.2
2022-08-16T23:26:44.588Z,10.7
2022-08-16T23:29:35.936Z,10.1
2022-08-16T23:32:23.513Z,10.1
2022-08-16T23:35:11.084Z,10.6
2022-08-16T23:38:00.623Z,10.7
2022-08-16T23:40:50.531Z,10.7
2022-08-16T23:43:39.273Z,10.7
2022-08-16T23:46:28.385Z,10.2
2022-08-16T23:49:55.926Z,10.2
2022-08-16T23:52:54.185Z,10.6
2022-08-16T23:55:46.299Z,11.2
2022-08-16T23:58:36.520Z,9.5
